Flight Track Log - Related Links

Times and Time Zones

All times are in EDT time to prevent confusion due to time zone crossing. See the BJS440 flight status page for this flight to view local times or setup timezone preferences in your user account.

Time Position Orientation Groundspeed Altitude Reporting Facility
EDT Latitude Longitude Course Direction KTS MPH feet Rate Location/Type
Sat 08:37:07 AM 39.0500 -77.6000 100° East 200 230 3,200  Level Potomac TRACON
Sat 08:38:07 AM 39.0667 -77.6667 288° West 203 234 5,500 2,200 Climbing Potomac TRACON
Sat 08:39:07 AM 39.1167 -77.6500 14° North 245 282 7,600 1,650 Climbing Potomac TRACON
Sat 08:40:07 AM 39.1500 -77.5500 67° East 280 322 8,800 700 Climbing Potomac TRACON
Sat 08:41:07 AM 39.1833 -77.4667 63° Northeast 294 338 9,000 100 Climbing Potomac TRACON
Sat 08:42:00 AM 39.3266 -76.9692 100° East  Level FlightAware Approximate
Sat 08:42:07 AM 39.2167 -77.3667 67° East 302 348 9,000  Level Potomac TRACON
Sat 08:43:07 AM 39.2500 -77.2667 67° East 307 353 10,300 2,000 Climbing Potomac TRACON
Sat 08:44:07 AM 39.3000 -77.1500 61° Northeast 365 420 13,000 2,177 Climbing Potomac TRACON
Sat 08:45:00 AM 39.3275 -77.0644 67° East 388 447 14,400 1,421 Climbing Washington Center
Sat 08:46:01 AM 39.3250 -76.9222 91° East 393 452 15,700 2,118 Climbing Washington Center
Sat 08:46:59 AM 39.3036 -76.7744 101° East 393 452 18,600 3,227 Climbing Washington Center
Sat 08:48:00 AM 39.2842 -76.6078 99° East 408 470 22,100 2,164 Climbing Washington Center
Sat 08:49:01 AM 39.2667 -76.4467 98° East 432 497 23,000 454 Climbing Washington Center
Sat 08:49:59 AM 39.3178 -76.2864 68° East 455 524 23,000 353 Level Washington Center
Sat 08:51:00 AM 39.3686 -76.1447 65° Northeast 460 529 23,700 1,785 Climbing Washington Center
Sat 08:52:00 AM 39.4192 -75.9892 67° East 465 535 26,600 2,874 Climbing Washington Center
Sat 08:52:59 AM 39.4675 -75.8333 68° East 471 542 29,400 2,420 Climbing Washington Center
Sat 08:53:59 AM 39.5197 -75.6775 66° East 471 542 31,400 1,785 Climbing Washington Center
Sat 08:55:00 AM 39.5697 -75.5161 68° East 471 542 33,000 1,770 Climbing Washington Center
Sat 08:56:01 AM 39.6217 -75.3544 67° East 476 548 35,000 1,950 Climbing Washington Center
Sat 08:57:00 AM 39.7006 -75.2139 54° Northeast 470 541 36,900 1,935 Climbing Washington Center
Sat 08:57:34 AM 39.7625 -75.1161 50° Northeast 467 537 38,000 1,813 Climbing New York Center
Sat 08:58:36 AM 39.8458 -75.0022 46° Northeast 510 587 39,800 1,400 Climbing New York Center
Sat 08:59:34 AM 39.9381 -74.8725 47° Northeast 487 560 40,800 600 Climbing New York Center
Sat 09:00:36 AM 40.0408 -74.7294 47° Northeast 481 554 41,000 66 Climbing New York Center
Sat 09:02:36 AM 40.2392 -74.4425 48° Northeast 521 600 41,000  Level Boston Center
Sat 09:03:37 AM 40.3392 -74.2986 48° Northeast 531 611 41,000  Level Boston Center
Sat 09:04:41 AM 40.4375 -74.1547 48° Northeast 531 611 41,000  Level Boston Center
Sat 09:05:42 AM 40.5350 -74.0142 48° Northeast 530 610 41,000  Level Boston Center
Sat 09:06:42 AM 40.6314 -73.8692 49° Northeast 528 608 41,000  Level Boston Center
Sat 09:07:43 AM 40.7300 -73.7253 48° Northeast 527 606 41,000  Level Boston Center
Sat 09:08:45 AM 40.8267 -73.5808 48° Northeast 527 606 41,000  Level Boston Center
Sat 09:09:46 AM 40.9244 -73.4344 48° Northeast 527 606 41,000  Level Boston Center
Sat 09:10:47 AM 41.0231 -73.2858 49° Northeast 530 610 41,000  Level Boston Center
Sat 09:11:48 AM 41.1244 -73.1328 49° Northeast 530 610 41,000  Level Boston Center
Sat 09:12:47 AM 41.2222 -72.9842 49° Northeast 533 613 41,000  Level Boston Center
Sat 09:13:50 AM 41.3381 -72.8056 49° Northeast 533 613 41,000  Level Boston Center
Sat 09:14:51 AM 41.4331 -72.6514 51° Northeast 534 615 41,000  Level Boston Center
Sat 09:15:52 AM 41.5219 -72.4917 53° Northeast 534 615 41,000  Level Boston Center
Sat 09:16:52 AM 41.6108 -72.3361 53° Northeast 535 616 41,000  Level Boston Center
Sat 09:17:53 AM 41.7011 -72.1783 53° Northeast 536 617 41,000  Level Boston Center
Sat 09:18:54 AM 41.7892 -72.0189 53° Northeast 536 617 41,000 -48 Level Boston Center
Sat 09:19:57 AM 41.8789 -71.8583 53° Northeast 542 624 40,900 -774 Descending Boston Center
Sat 09:20:58 AM 41.9700 -71.6947 53° Northeast 549 632 39,400 -1,488 Descending Boston Center
Sat 09:21:58 AM 42.0628 -71.5303 53° Northeast 551 634 37,900 -1,561 Descending Boston Center
Sat 09:23:01 AM 42.1689 -71.3364 54° Northeast 546 628 36,200 -1,548 Descending Boston Center
Sat 09:24:02 AM 42.2531 -71.1836 53° Northeast 532 612 34,700 -1,500 Descending Boston Center
Sat 09:25:01 AM 42.3403 -71.0281 53° Northeast 524 603 33,200 -1,500 Descending Boston Center
Sat 09:26:02 AM 42.4553 -70.9233 34° Northeast 502 578 31,700 -1,475 Descending Boston Center
Sat 09:27:03 AM 42.5819 -70.8406 26° Northeast 502 578 30,200 -1,440 Descending Boston Center
Sat 09:28:07 AM 42.7075 -70.7567 26° Northeast 502 578 28,700 -1,452 Descending Boston Center
Sat 09:29:07 AM 42.8311 -70.6714 27° Northeast 502 578 27,200 -1,488 Descending Boston Center
Sat 09:30:08 AM 42.9572 -70.5861 26° Northeast 503 579 25,700 -2,557 Descending Boston Center
Sat 09:31:09 AM 43.0814 -70.5025 26° Northeast 501 577 22,000 -3,967 Descending Boston Center
Sat 09:32:09 AM 43.2128 -70.4117 27° Northeast 456 525 17,700 -3,756 Descending Boston Center
Sat 09:33:12 AM 43.3236 -70.3358 26° Northeast 416 479 14,300 -3,220 Descending Boston Center
Sat 09:34:12 AM 43.4208 -70.2681 27° Northeast 392 451 11,100 -2,331 Descending Boston Center
Sat 09:35:13 AM 43.5014 -70.2203 23° Northeast 319 367 9,600 -1,770 Descending Boston Center
Sat 09:36:14 AM 43.5847 -70.2531 344° North 286 329 7,500 -1,935 Descending Boston Center
Sat 09:37:17 AM 43.6594 -70.2592 357° North 278 320 5,600 -1,659 Descending Boston Center
Sat 09:38:17 AM 43.7233 -70.2131 28° Northeast 274 315 4,100 -1,041 Descending Boston Center
Sat 09:39:18 AM 43.7728 -70.1306 50° Northeast 278 320 3,500 -645 Descending Boston Center
Sat 09:40:18 AM 43.8214 -70.0514 50° Northeast 278 320 2,800 -700 Descending Boston Center
Sat 09:42:00 AM 43.8833 -69.9333 28° Northeast  Level FlightAware Approximate
Sat 09:49:00 AM 43.8924 -69.9388 28° Northeast  Level Estimated
Sat 09:50:00 AM 43.8924 -69.9388 28° Northeast  Level Estimated
Sat 09:51:00 AM 43.8924 -69.9388 28° Northeast  Level Estimated
Sat 09:52:00 AM 43.8924 -69.9388 28° Northeast  Level Estimated
Sat 09:53:00 AM 43.8924 -69.9388 28° Northeast  Level Estimated
Sat 09:54:00 AM 43.8924 -69.9388 28° Northeast  Level Estimated
Sat 09:55:00 AM 43.8924 -69.9388 28° Northeast  Level Estimated
Sat 09:56:00 AM 43.8924 -69.9388 28° Northeast  Level Estimated
Sat 09:57:00 AM 43.8924 -69.9388 28° Northeast  Level Estimated

Login

Don't have an account? Register now (free) for customized features, flight alerts, and more!